Snetterton BSB: Sunday race times and results

Buildbase Suzuki's Bradley Ray going around the 300 track
Buildbase Suzuki's Bradley Ray going around the 300 track Picture: Impact Images

MCE British Superbike race two - conditions dry

1 67 Shane BYRNE GBR Ducati - Be Wiser Ducati Racing Team 16 28:54.231 98.60 1:47.143 9
2 25 Josh BROOKES AUS Yamaha - Anvil Hire TAG Racing 16 28:54.917 0.686 0.686 98.56 1:47.469 12
3 22 Jason O’HALLORAN GBR Honda - Honda Racing 16 29:01.932 7.701 7.015 98.17 1:48.149 9
4 27 Jake DIXON GBR Kawasaki - RAF Regular & Reserve Kawasaki 16 29:02.492 8.261 0.560 98.14 1:48.118 6
5 21 John HOPKINS USA Ducati - Moto Rapido 16 29:02.775 8.544 0.283 98.12 1:47.849 6
6 60 Peter HICKMAN GBR BMW - Smiths Racing 16 29:07.807 13.576 5.032 97.84 1:48.322 7
7 4 Dan LINFOOT GBR Honda - Honda Racing 16 29:07.846 13.615 0.039 97.84 1:48.115 7
8 91 Leon HASLAM GBR Kawasaki - JG Speedfit Kawasaki 16 29:11.856 17.625 4.010 97.61 1:48.769 4
9 50 Sylvain GUINTOLI FRA Suzuki - Bennetts Suzuki 16 29:14.253 20.022 2.397 97.48 1:48.782 13
10 12 Luke MOSSEY GBR Kawasaki - JG Speedfit Kawasaki 16 29:17.319 23.088 3.066 97.31 1:48.957 9
11 28 Bradley RAY GBR Suzuki - Buildbase Suzuki 16 29:19.268 25.037 1.949 97.20 1:49.075 4
12 96 Jakub SMRZ CZE BMW - Lloyd & Jones PR Racing BMW 16 29:19.543 25.312 0.275 97.18 1:48.998 9
13 14 Lee JACKSON GBR BMW - Smiths Racing 16 29:23.022 28.791 3.479 96.99 1:49.301 4
14 46 Tommy BRIDEWELL GBR Kawasaki - Team WD-40 16 29:27.610 33.379 4.588 96.74 1:49.295 4
15 7 Michael LAVERTY GBR Yamaha - McAMS Yamaha 16 29:27.825 33.594 0.215 96.73 1:49.146 4
16 3 Billy McCONNELL AUS Kawasaki - Quattro Plant FS-3 Racing Kawasaki 16 29:28.023 33.792 0.198 96.72 1:49.297 4
17 5 James WESTMORELAND GBR Kawasaki - Gearlink Kawasaki 16 29:41.662 47.431 13.639 95.98 1:50.176 10
18 18 Andy REID GBR BMW - Tyco BMW Motorrad 16 29:50.734 56.503 9.072 95.49 1:50.518 4
19 64 Aaron ZANOTTI GBR Yamaha - Platform Hire Yamaha 16 29:51.780 57.549 1.046 95.44 1:50.439 4
20 8 Shaun WINFIELD GBR Yamaha - Anvil Hire TAG Racing 16 29:56.245 1:02.014 4.465 95.20 1:50.480 2
NOT CLASSIFIED
DNF 77 James ELLISON GBR Yamaha - McAMS Yamaha 10 18:08.964 6 Laps 6 Laps 98.14 1:48.068 8
DNF 10 Josh ELLIOTT GBR BMW - Tyco BMW Motorrad 5 9:21.504 11 Laps 5 Laps 95.17 1:49.825 2
DNF 6 Taylor MACKENZIE GBR Suzuki - Bennetts Suzuki 0
DNF 40 Martin JESSOPP GBR BMW - RidersMotorcycles.com BMW 0

MCE British Superbike race one - conditions dry

1 67 Shane BYRNE GBR Ducati - Be Wiser Ducati Racing Team 16 28:56.720 98.46 1:47.759 12
2 25 Josh BROOKES AUS Yamaha - Anvil Hire TAG Racing 16 29:00.015 3.295 3.295 98.28 1:47.776 11
3 22 Jason O’HALLORAN GBR Honda - Honda Racing 16 29:04.418 7.698 4.403 98.03 1:47.978 6
4 91 Leon HASLAM GBR Kawasaki - JG Speedfit Kawasaki 16 29:04.605 7.885 0.187 98.02 1:48.121 14
5 4 Dan LINFOOT GBR Honda - Honda Racing 16 29:08.376 11.656 3.771 97.81 1:48.472 9
6 27 Jake DIXON GBR Kawasaki - RAF Regular & Reserve Kawasaki 16 29:11.233 14.513 2.857 97.65 1:48.456 3
7 60 Peter HICKMAN GBR BMW - Smiths Racing 16 29:11.418 14.698 0.185 97.64 1:48.021 3
8 21 John HOPKINS USA Ducati - Moto Rapido 16 29:13.316 16.596 1.898 97.53 1:48.257 6
9 28 Bradley RAY GBR Suzuki - Buildbase Suzuki 16 29:13.860 17.140 0.544 97.50 1:48.540 4
10 50 Sylvain GUINTOLI FRA Suzuki - Bennetts Suzuki 16 29:18.061 21.341 4.201 97.27 1:48.600 4
11 3 Billy McCONNELL AUS Kawasaki - Quattro Plant FS-3 Racing Kawasaki 16 29:21.122 24.402 3.061 97.10 1:49.071 4
12 7 Michael LAVERTY GBR Yamaha - McAMS Yamaha 16 29:22.663 25.943 1.541 97.01 1:48.895 5
13 14 Lee JACKSON GBR BMW - Smiths Racing 16 29:28.070 31.350 5.407 96.72 1:48.846 2
14 46 Tommy BRIDEWELL GBR Kawasaki - Team WD-40 16 29:31.566 34.846 3.496 96.52 1:49.270 3
15 10 Josh ELLIOTT GBR BMW - Tyco BMW Motorrad 16 29:34.345 37.625 2.779 96.37 1:49.655 4
16 5 James WESTMORELAND GBR Kawasaki - Gearlink Kawasaki 16 29:37.715 40.995 3.370 96.19 1:50.090 5
17 18 Andy REID GBR BMW - Tyco BMW Motorrad 16 29:57.359 1:00.639 19.644 95.14 1:50.741 7
18 64 Aaron ZANOTTI GBR Yamaha - Platform Hire Yamaha 16 30:02.962 1:06.242 5.603 94.84 1:50.842 4
19 8 Shaun WINFIELD GBR Yamaha - Anvil Hire TAG Racing 16 30:12.286 1:15.566 9.324 94.36 1:50.524 2
NOT CLASSIFIED
DNF 77 James ELLISON GBR Yamaha - McAMS Yamaha 6 10:56.581 10 Laps 10 Laps 97.67 1:47.985 6
DNF 40 Martin JESSOPP GBR BMW - RidersMotorcycles.com BMW 6 11:29.056 10 Laps 32.475 93.06 1:51.486 5
DNF 96 Jakub SMRZ CZE BMW - Lloyd & Jones PR Racing BMW 3 5:35.804 13 Laps 3 Laps 95.48 1:49.138 2
DNF 12 Luke MOSSEY GBR Kawasaki - JG Speedfit Kawasaki 2 3:45.456 14 Laps 1 Lap 94.81 1:49.298 2
DNF 6 Taylor MACKENZIE GBR Suzuki - Bennetts Suzuki 2 3:46.565 14 Laps 1.109 94.34 1:49.360 2


MCE British Superbike warm up - conditions dry

1 67 Shane BYRNE GBR Ducati - Be Wiser Ducati Racing Team 1:47.976 5 8 98.98
2 77 James ELLISON GBR Yamaha - McAMS Yamaha 1:48.025 5 9 0.049 0.049 98.94
3 22 Jason O’HALLORAN GBR Honda - Honda Racing 1:48.318 5 8 0.342 0.293 98.67
4 91 Leon HASLAM GBR Kawasaki - JG Speedfit Kawasaki 1:48.510 9 9 0.534 0.192 98.49
5 25 Josh BROOKES AUS Yamaha - Anvil Hire TAG Racing 1:48.579 6 9 0.603 0.069 98.43
6 60 Peter HICKMAN GBR BMW - Smiths Racing 1:48.627 5 6 0.651 0.048 98.39
7 12 Luke MOSSEY GBR Kawasaki - JG Speedfit Kawasaki 1:48.631 4 5 0.655 0.004 98.38
8 21 John HOPKINS USA Ducati - Moto Rapido 1:48.814 6 6 0.838 0.183 98.22
9 4 Dan LINFOOT GBR Honda - Honda Racing 1:49.015 4 9 1.039 0.201 98.04
10 6 Taylor MACKENZIE GBR Suzuki - Bennetts Suzuki 1:49.032 4 9 1.056 0.017 98.02
11 28 Bradley RAY GBR Suzuki - Buildbase Suzuki 1:49.141 4 5 1.165 0.109 97.92
12 50 Sylvain GUINTOLI FRA Suzuki - Bennetts Suzuki 1:49.229 7 7 1.253 0.088 97.85
13 46 Tommy BRIDEWELL GBR Kawasaki - Team WD-40 1:49.343 5 9 1.367 0.114 97.74
14 14 Lee JACKSON GBR BMW - Smiths Racing 1:49.656 5 9 1.680 0.313 97.46
15 7 Michael LAVERTY GBR Yamaha - McAMS Yamaha 1:49.885 7 7 1.909 0.229 97.26
16 96 Jakub SMRZ CZE BMW - Lloyd & Jones PR Racing BMW 1:49.973 4 8 1.997 0.088 97.18
17 10 Josh ELLIOTT GBR BMW - Tyco BMW Motorrad 1:50.053 4 8 2.077 0.080 97.11
18 3 Billy McCONNELL AUS Kawasaki - Quattro Plant FS-3 Racing Kawasaki 1:50.424 3 8 2.448 0.371 96.79
19 5 James WESTMORELAND GBR Kawasaki - Gearlink Kawasaki 1:50.473 5 8 2.497 0.049 96.74
20 64 Aaron ZANOTTI GBR Yamaha - Platform Hire Yamaha 1:50.864 7 7 2.888 0.391 96.40
21 40 Martin JESSOPP GBR BMW - RidersMotorcycles.com BMW 1:50.908 8 8 2.932 0.044 96.36
22 18 Andy REID GBR BMW - Tyco BMW Motorrad 1:51.221 8 8 3.245 0.313 96.09
23 8 Shaun WINFIELD GBR Yamaha - Anvil Hire TAG Racing 1:53.008 7 7 5.032 1.787 94.57
24 27 Jake DIXON GBR Kawasaki - RAF Regular & Reserve Kawasaki 1

Dickies British Supersport race - conditions dry

1 34 I 1 Alastair SEELEY Spirit Moto2 - Team Quattro Spirit 15 28:13.090 94.69 1:51.812 13
2 8 1 Andrew IRWIN Kawasaki - Gearlink Kawasaki 15 28:14.987 1.897 1.897 94.58 1:52.118 8
3 4 2 Jack KENNEDY MV Agusta - Tempus Magazine MV Agusta 15 28:15.049 1.959 0.062 94.58 1:51.751 4
4 15 3 Ross TWYMAN Yamaha - EHA Racing 15 28:22.509 9.419 7.460 94.16 1:52.536 10
5 75 4 Jamie PERRIN Yamaha - Slidecodor - GO Racing Developments 15 28:27.293 14.203 4.784 93.90 1:52.577 9
6 81 I 2 Graeme GOWLAND Triumph - Smiths Triumph 15 28:30.440 17.350 3.147 93.73 1:53.226 6
7 95 5 David ALLINGHAM Yamaha - EHA Racing 15 28:37.128 24.038 6.688 93.36 1:52.683 6
8 66 6 Kurt WIGLEY Yamaha - Sorrymate.com 15 28:39.305 26.215 2.177 93.24 1:53.608 13
9 2 7 Tom WARD Yamaha - Aero Legends / Go Racing Developments 15 28:39.418 26.328 0.113 93.24 1:53.429 5
10 69 8 Ryan DIXON Yamaha - Team Ixon Racing 15 28:54.796 41.706 15.378 92.41 1:53.890 6
11 52 9 Tommy PHILP Yamaha - Draper Racing 15 29:03.037 49.947 8.241 91.97 1:54.270 5
12 31 10 Sam COX Yamaha - Echelon / F3 Group 15 29:09.213 56.123 6.176 91.65 1:55.520 9
13 88 11 Josh DALEY Kawasaki - Josh Daley Racing 15 29:09.316 56.226 0.103 91.64 1:55.612 6
14 5 STK6 1 Aaron CLARKE Yamaha - Draper Racing 15 29:23.900 1:10.810 14.584 90.89 1:56.049 13
NOT CLASSIFIED
DNF 28 Keenan ARMSTRONG Kawasaki - Moto-Breakers Racing 14 26:45.594 1 Lap 1 Lap 93.19 1:53.752 14
DNF 111 STK6 James NAGY Kawasaki - STEELMATE Racing 13 25:32.024 2 Laps 1 Lap 90.69 1:56.783 7
DNF 33 Keith FARMER Yamaha - Appleyard Macadam with Integro 10 18:50.971 5 Laps 3 Laps 94.50 1:52.076 8
DNF 3 STK6 Mark CLAYTON Kawasaki - KSM Racing 8 15:45.749 7 Laps 2 Laps 90.40 1:56.072 8
DNF 61 Benjamin CURRIE Kawasaki - Gearlink Kawasaki 7 13:15.386 8 Laps 1 Lap 94.06 1:52.266 5
DNF 27 Bjorn ESTMENT Yamaha - Everquip Racing 7 13:23.069 8 Laps 7.683 93.16 1:53.304 6
DNF 59 Matt TRUELOVE Yamaha - Astro-TT Racing 4 7:48.285 11 Laps 3 Laps 91.29 1:54.743 4
DNF 11 Harry TRUELOVE Yamaha - Astro-TT Racing 4 7:50.962 11 Laps 2.677 90.77 1:55.563 2
DNF 40 Joe FRANCIS Yamaha - Halsall Racing 3 5:42.328 12 Laps 1 Lap 93.66 1:52.187 3
DNF 12 STK6 Brad JONES Yamaha - Appleyard Macadam with Integro 2 4:01.347 13 Laps 1 Lap 88.56 1:56.071 2

Dickies British Supersport warm up - conditions dry

1 33 1 Keith FARMER Yamaha - Appleyard Macadam with Integro 1:51.941 4 4 95.47
2 40 2 Joe FRANCIS Yamaha - Halsall Racing 1:52.051 3 4 0.110 0.110 95.38
3 8 3 Andrew IRWIN Kawasaki - Gearlink Kawasaki 1:52.144 5 5 0.203 0.093 95.30
4 4 4 Jack KENNEDY MV Agusta - Tempus Magazine MV Agusta 1:52.336 4 4 0.395 0.192 95.14
5 95 5 David ALLINGHAM Yamaha - EHA Racing 1:52.650 4 4 0.709 0.314 94.87
6 61 6 Benjamin CURRIE Kawasaki - Gearlink Kawasaki 1:53.127 5 5 1.186 0.477 94.47
7 27 7 Bjorn ESTMENT Yamaha - Everquip Racing 1:53.198 4 4 1.257 0.071 94.41
8 15 8 Ross TWYMAN Yamaha - EHA Racing 1:53.450 4 4 1.509 0.252 94.20
9 81 I 1 Graeme GOWLAND Triumph - Smiths Triumph 1:53.505 5 5 1.564 0.055 94.16
10 75 9 Jamie PERRIN Yamaha - Slidecodor - GO Racing Developments 1:53.660 3 4 1.719 0.155 94.03
11 2 10 Tom WARD Yamaha - Aero Legends / Go Racing Developments 1:53.673 4 5 1.732 0.013 94.02
12 11 11 Harry TRUELOVE Yamaha - Astro-TT Racing 1:54.477 4 5 2.536 0.804 93.36
13 66 12 Kurt WIGLEY Yamaha - Sorrymate.com 1:54.616 3 4 2.675 0.139 93.25
14 28 13 Keenan ARMSTRONG Kawasaki - Moto-Breakers Racing 1:54.817 5 5 2.876 0.201 93.08
15 31 14 Sam COX Yamaha - Echelon / F3 Group 1:55.319 5 5 3.378 0.502 92.68
16 52 15 Tommy PHILP Yamaha - Draper Racing 1:55.398 3 5 3.457 0.079 92.61
17 69 16 Ryan DIXON Yamaha - Team Ixon Racing 1:56.476 3 3 4.535 1.078 91.76
18 88 17 Josh DALEY Kawasaki - Josh Daley Racing 1:56.847 3 4 4.906 0.371 91.47
19 59 18 Matt TRUELOVE Yamaha - Astro-TT Racing 1:59.800 3 3 7.859 2.953 89.21
20 34 I 2 Alastair SEELEY Spirit Moto2 - Team Quattro Spirit 1

Pirelli National Superstock 1000 race - conditions dry

1 83 Danny BUCHAN Kawasaki - Morello Racing Kawasaki 16 29:39.697 96.08 1:50.407 5
2 20 Mason LAW Kawasaki - STAUFF Connect Academy 16 29:43.390 3.693 3.693 95.88 1:50.028 4
3 4 Michael RUTTER BMW - Bathams SMT 16 29:45.119 5.422 1.729 95.79 1:50.402 4
4 47 Richard COOPER Suzuki - Bennetts Suzuki 16 29:47.040 7.343 1.921 95.69 1:50.453 4
5 69 Chrissy ROUSE BMW - Mission Racing 16 29:48.901 9.204 1.861 95.59 1:50.265 4
6 2 Adam JENKINSON BMW - Northern Escalator Installations 16 29:49.028 9.331 0.127 95.58 1:50.627 3
7 11 Alex OLSEN Suzuki - Buildbase Suzuki 16 29:57.896 18.199 8.868 95.11 1:50.845 4
8 34 Jordan WEAVING Kawasaki - Briggs Equipment Kawasaki 16 30:01.730 22.033 3.834 94.91 1:51.434 8
9 12 Luke HEDGER Aprilia - EHA Racing Aprilia UK 16 30:01.853 22.156 0.123 94.90 1:51.338 5
10 43 James RISPOLI Kawasaki - Quattro Plant FS-3 Racing Kawasaki 16 30:04.756 25.059 2.903 94.75 1:51.438 4
11 32 Carl PHILLIPS Suzuki - MD Racing 16 30:06.181 26.484 1.425 94.68 1:51.519 8
12 74 Dean HIPWELL BMW - CDH Racing 16 30:07.098 27.401 0.917 94.63 1:51.725 7
13 21 Tom TUNSTALL BMW - Integro 16 30:10.566 30.869 3.468 94.45 1:52.079 10
14 51 Brayden ELLIOTT Yamaha - PacedayZ Trackdays 16 30:15.635 35.938 5.069 94.18 1:52.471 12
15 22 Barry TEASDALE BMW - Chassis Cab Truck Centres 16 30:25.687 45.990 10.052 93.66 1:52.757 6
16 6 Dean HARRISON Kawasaki - Silicone Engineering Racing 16 30:29.468 49.771 3.781 93.47 1:53.008 6
17 63 James WHITE Kawasaki - Team Afterdark 16 30:32.375 52.678 2.907 93.32 1:52.931 4
18 45 Tom FISHER Kawasaki - G & S Racing Kawasaki 16 30:32.426 52.729 0.051 93.32 1:53.047 4
19 70 Joe MORPHETT Yamaha - ePayME 16 30:39.065 59.368 6.639 92.98 1:53.169 7
20 96 Phil WAKEFIELD BMW - PWR 16 30:47.108 1:07.411 8.043 92.58 1:53.795 4
21 50 James EDWARDS Kawasaki - RTS Racing 16 30:52.740 1:13.043 5.632 92.30 1:54.534 9
22 60 Christopher GREEN BMW - HSL Hollins Strategic Land / GoGreen Racin 16 30:55.588 1:15.891 2.848 92.15 1:54.853 7
23 80 Jack DRURY Kawasaki - Jak D Racing 16 30:58.938 1:19.241 3.350 91.99 1:54.662 7
24 92 Joshua BOYD BMW - Jones Dorling Racing 16 31:03.961 1:24.264 5.023 91.74 1:54.443 6
25 98 Rick DICKINSON Kawasaki - Rick Dickinson 16 31:07.487 1:27.790 3.526 91.57 1:55.078 6
26 903 Mark FINCHAM BMW - True Heroes Racing / Laguna 16 31:31.174 1:51.477 23.687 90.42 1:55.901 4
NOT CLASSIFIED
DNF 30 Rob McNEALY BMW - McNealy Brown ltd 14 26:32.053 2 Laps 2 Laps 93.98 1:52.277 3
DNF 55 Leon JEACOCK Suzuki - Geo E Davies Racing 14 26:44.241 2 Laps 12.188 93.27 1:52.477 2
DNF 33 Darren IBERTSON BMW - IMS AP Tyres Racing 14 27:22.967 2 Laps 38.726 91.07 1:55.752 4
DNF 17 Matthew PAULO BMW - Newman Racing 13 24:23.576 3 Laps 1 Lap 94.93 1:51.397 6
DNF 89 Fraser ROGERS Kawasaki - Morello Racing Kawasaki 7 13:02.169 9 Laps 6 Laps 95.65 1:50.494 5
DNF 88 Ashley BEECH BMW - Jones Dorling Racing 5 9:29.885 11 Laps 2 Laps 93.77 1:51.835 3
DNF 8 Lewis ROLLO Kawasaki - MSS Performance 2 3:58.278 14 Laps 3 Laps 89.71 1:54.937 2
DNF 64 Ashley BUXTON Kawasaki - Right Gear Racing 2 3:58.503 14 Laps 0.225 89.62 1:54.635 2

Pirelli National Superstock 1000 warm up - conditions dry

1 83 Danny BUCHAN Kawasaki - Morello Racing Kawasaki 1:50.798 4 4 96.46
2 47 Richard COOPER Suzuki - Bennetts Suzuki 1:51.193 4 4 0.395 0.395 96.12
3 2 Adam JENKINSON BMW - Northern Escalator Installations 1:51.427 3 4 0.629 0.234 95.92
4 20 Mason LAW Kawasaki - STAUFF Connect Academy 1:51.735 4 4 0.937 0.308 95.65
5 69 Chrissy ROUSE BMW - Mission Racing 1:51.783 4 4 0.985 0.048 95.61
6 4 Michael RUTTER BMW - Bathams SMT 1:51.884 5 5 1.086 0.101 95.52
7 89 Fraser ROGERS Kawasaki - Morello Racing Kawasaki 1:51.917 4 4 1.119 0.033 95.50
8 34 Jordan WEAVING Kawasaki - Briggs Equipment Kawasaki 1:52.133 4 4 1.335 0.216 95.31
9 43 James RISPOLI Kawasaki - Quattro Plant FS-3 Racing Kawasaki 1:52.328 4 4 1.530 0.195 95.15
10 11 Alex OLSEN Suzuki - Buildbase Suzuki 1:52.585 3 4 1.787 0.257 94.93
11 17 Matthew PAULO BMW - Newman Racing 1:52.676 5 5 1.878 0.091 94.85
12 21 Tom TUNSTALL BMW - Integro 1:52.732 4 4 1.934 0.056 94.80
13 12 Luke HEDGER Aprilia - EHA Racing Aprilia UK 1:53.015 5 5 2.217 0.283 94.57
14 74 Dean HIPWELL BMW - CDH Racing 1:53.023 4 5 2.225 0.008 94.56
15 51 Brayden ELLIOTT Yamaha - PacedayZ Trackdays 1:53.023 5 5 2.225 0.000 94.56
16 88 Ashley BEECH BMW - Jones Dorling Racing 1:53.303 2 4 2.505 0.280 94.33
17 55 Leon JEACOCK Suzuki - Geo E Davies Racing 1:53.726 2 4 2.928 0.423 93.98
18 32 Carl PHILLIPS Suzuki - MD Racing 1:53.728 4 4 2.930 0.002 93.97
19 63 James WHITE Kawasaki - Team Afterdark 1:53.957 3 4 3.159 0.229 93.79
20 45 Tom FISHER Kawasaki - G & S Racing Kawasaki 1:54.048 4 5 3.250 0.091 93.71
21 6 Dean HARRISON Kawasaki - Silicone Engineering Racing 1:54.074 4 4 3.276 0.026 93.69
22 64 Ashley BUXTON Kawasaki - Right Gear Racing 1:54.195 3 4 3.397 0.121 93.59
23 30 Rob McNEALY BMW - McNealy Brown ltd 1:54.417 3 4 3.619 0.222 93.41
24 22 Barry TEASDALE BMW - Chassis Cab Truck Centres 1:54.543 3 4 3.745 0.126 93.31
25 70 Joe MORPHETT Yamaha - ePayME 1:54.560 5 5 3.762 0.017 93.29
26 50 James EDWARDS Kawasaki - RTS Racing 1:54.717 5 5 3.919 0.157 93.16
27 96 Phil WAKEFIELD BMW - PWR 1:55.014 4 4 4.216 0.297 92.92
28 80 Jack DRURY Kawasaki - Jak D Racing 1:56.094 3 4 5.296 1.080 92.06
29 92 Joshua BOYD BMW - Jones Dorling Racing 1:56.474 3 4 5.676 0.380 91.76
30 60 Christopher GREEN BMW - HSL Hollins Strategic Land / GoGreen Racing 1:56.785 2 4 5.987 0.311 91.51
31 98 Rick DICKINSON Kawasaki - Rick Dickinson 1:57.402 3 4 6.604 0.617 91.03
32 903 Mark FINCHAM BMW - True Heroes Racing / Laguna 1:58.213 3 4 7.415 0.811 90.41
33 19 Ryan GIBSON Yamaha - GA Racing Motorsolve Car Repairs 1:58.669 2 4 7.871 0.456 90.06
34 33 Darren IBERTSON BMW - IMS AP Tyres Racing 1:58.805 2 4 8.007 0.136 89.96
35 8 Lewis ROLLO Kawasaki - MSS Performance 2

Pirelli National Superstock 600 race - conditions dry

1 68 Tom NEAVE Kawasaki - Chalk Racing Neave Twins 12 23:01.344 92.84 1:53.646 3
2 14 Tim NEAVE Kawasaki - Chalk Racing Neave Twins 12 23:07.850 6.506 6.506 92.41 1:54.672 9
3 80 Dan STAMPER Yamaha - Allied Racing 12 23:09.847 8.503 1.997 92.28 1:54.803 6
4 12 Brad JONES Yamaha - Appleyard Macadam with Integro 12 23:14.740 13.396 4.893 91.95 1:54.860 3
5 24 Jordan GILBERT Yamaha - Mission Racing 12 23:16.401 15.057 1.661 91.84 1:55.082 2
6 51 George STANLEY Kawasaki - BWSR 12 23:19.235 17.891 2.834 91.66 1:55.264 8
7 97 Bradley PERIE Yamaha - Diamond H Racing 12 23:26.475 25.131 7.240 91.19 1:55.883 4
8 9 Ben LUXTON Kawasaki - CNC Routing 12 23:27.614 26.270 1.139 91.11 1:55.945 12
9 10 Joe SHELDON-SHAW Kawasaki - Via Moto Racing 12 23:29.556 28.212 1.942 90.99 1:56.168 8
10 5 Aaron CLARKE Yamaha - Draper Racing 12 23:30.257 28.913 0.701 90.94 1:55.986 3
11 50 Sam THOMPSON Kawasaki - Thompson Racing 12 23:30.411 29.067 0.154 90.93 1:55.623 3
12 41 Milo WARD Kawasaki - MWR Racing 12 23:34.133 32.789 3.722 90.69 1:56.213 7
13 26 Grant NEWSTEAD Yamaha - Team Tinklers 12 23:34.302 32.958 0.169 90.68 1:56.578 8
14 11 James NAGY Kawasaki - STEELMATE Racing 12 23:38.228 36.884 3.926 90.43 1:55.714 2
15 3 Mark CLAYTON Kawasaki - KSM Racing 12 23:40.746 39.402 2.518 90.27 1:57.134 5
16 58 Cameron LEE Yamaha - Allied Racing 12 23:40.973 39.629 0.227 90.25 1:56.871 8
17 22 Alex BAKER Yamaha - BBR Racing 12 23:41.612 40.268 0.639 90.21 1:57.089 7
18 79 Aaron WRIGHT Yamaha - Satchwell Racing 12 23:48.247 46.903 6.635 89.80 1:57.578 6
19 34 Daniel DRAYTON Kawasaki - Drayton Racing 12 23:59.519 58.175 11.272 89.09 1:57.764 9
20 95 Grant ROBERTSON Kawasaki - GR Racing 12 24:03.730 1:02.386 4.211 88.83 1:58.802 7
21 52 Ben COTGROVE Yamaha - NR Racing 12 24:13.316 1:11.972 9.586 88.25 1:58.922 7
22 7 Robert CHILDS Yamaha - JRC Racing 12 24:19.112 1:17.768 5.796 87.90 2:00.032 10
23 33 Josh HARVEY Yamaha - NR Racing 12 24:21.336 1:19.992 2.224 87.76 2:00.187 9
24 49 James ALDERSON Triumph - R Alderson & Sons Racing 12 24:25.377 1:24.033 4.041 87.52 2:00.086 9
25 72 Harry BLADES Kawasaki - Blades Racing 12 24:26.167 1:24.823 0.790 87.47 1:59.415 11
26 27 Jamie ASHBY Kawasaki - JPA Racing / Davison Transport 12 24:39.354 1:38.010 13.187 86.69 2:01.501 9
27 29 Charlie OAKLAND Kawasaki - Austin Motorcycles 12 24:50.569 1:49.225 11.215 86.04 2:02.105 8
NOT CLASSIFIED
DNF 21 Ryan VICKERS Yamaha - Team Vickers 11 21:12.145 1 Lap 1 Lap 92.41 1:54.539 4
DNF 32 Mark PIPER Yamaha - Pied Piper Racing 8 16:22.734 4 Laps 3 Laps 87.00 2:00.633 3
DNF 20 Tom OLIVER Yamaha - SGR Racing 7 13:33.165 5 Laps 1 Lap 92.00 1:54.816 7
DNF 47 Robert KENNEDY Kawasaki - Team Sandown 7 13:44.050 5 Laps 10.885 90.79 1:55.710 3
DNF 19 Aaron CLIFFORD Kawasaki - Clifford Racing 7 13:52.059 5 Laps 8.009 89.91 1:57.002 3
DNF 92 Josh WOOD Kawasaki - Wood Racing 5 10:05.201 7 Laps 2 Laps 88.30 1:57.893 3
DNF 75 Ozzy MADEY Kawasaki - Madey Racing 5 10:10.625 7 Laps 5.424 87.51 1:59.134 3
DNF 55 Kevin KEYES Kawasaki - Team #109 4 7:52.878 8 Laps 1 Lap 90.40 1:55.768 3
DNF 63 Nico CIPRIANO Yamaha - Nico Cipriano 4 9:24.771 8 Laps 1:31.893 75.69 2:04.391 3
DNF 4 Louis VALLELEY Kawasaki - Lou Racing 1 2:41.994 11 Laps 3 Laps 65.97
DNF 81 Ryan WATSON Yamaha - Grey Harlings 0

Pirelli National Superstock 600 warm up -conditions dry

1 24 Jordan GILBERT Yamaha - Mission Racing 1:55.300 4 4 92.69
2 80 Dan STAMPER Yamaha - Allied Racing 1:55.336 4 5 0.036 0.036 92.66
3 68 Tom NEAVE Kawasaki - Chalk Racing Neave Twins 1:55.708 5 5 0.408 0.372 92.37
4 51 George STANLEY Kawasaki - BWSR 1:55.878 4 5 0.578 0.170 92.23
5 20 Tom OLIVER Yamaha - SGR Racing 1:55.915 4 5 0.615 0.037 92.20
6 21 Ryan VICKERS Yamaha - Team Vickers 1:56.285 4 4 0.985 0.370 91.91
7 41 Milo WARD Kawasaki - MWR Racing 1:56.363 3 4 1.063 0.078 91.85
8 12 Brad JONES Yamaha - Appleyard Macadam with Integro 1:56.455 3 3 1.155 0.092 91.77
9 47 Robert KENNEDY Kawasaki - Team Sandown 1:56.466 4 4 1.166 0.011 91.76
10 9 Ben LUXTON Kawasaki - CNC Routing 1:57.169 4 4 1.869 0.703 91.21
11 14 Tim NEAVE Kawasaki - Chalk Racing Neave Twins 1:57.590 4 4 2.290 0.421 90.89
12 55 Kevin KEYES Kawasaki - Team #109 1:57.744 4 4 2.444 0.154 90.77
13 97 Bradley PERIE Yamaha - Diamond H Racing 1:57.799 4 4 2.499 0.055 90.73
14 50 Sam THOMPSON Kawasaki - Thompson Racing 1:58.254 4 4 2.954 0.455 90.38
15 10 Joe SHELDON-SHAW Kawasaki - Via Moto Racing 1:58.358 4 4 3.058 0.104 90.30
16 5 Aaron CLARKE Yamaha - Draper Racing 1:58.563 4 4 3.263 0.205 90.14
17 81 Ryan WATSON Yamaha - Grey Harlings 1:58.592 4 4 3.292 0.029 90.12
18 3 Mark CLAYTON Kawasaki - KSM Racing 1:58.641 3 4 3.341 0.049 90.08
19 26 Grant NEWSTEAD Yamaha - Team Tinklers 1:58.836 4 4 3.536 0.195 89.93
20 19 Aaron CLIFFORD Kawasaki - Clifford Racing 1:58.941 4 4 3.641 0.105 89.86
21 11 James NAGY Kawasaki - STEELMATE Racing 1:59.027 4 4 3.727 0.086 89.79
22 22 Alex BAKER Yamaha - BBR Racing 1:59.481 3 4 4.181 0.454 89.45
23 58 Cameron LEE Yamaha - Allied Racing 1:59.755 2 4 4.455 0.274 89.24
24 75 Ozzy MADEY Kawasaki - Madey Racing 2:00.252 4 4 4.952 0.497 88.88
25 52 Ben COTGROVE Yamaha - NR Racing 2:00.276 4 4 4.976 0.024 88.86
26 34 Daniel DRAYTON Kawasaki - Drayton Racing 2:00.677 4 4 5.377 0.401 88.56
27 79 Aaron WRIGHT Yamaha - Satchwell Racing 2:01.061 4 4 5.761 0.384 88.28
28 95 Grant ROBERTSON Kawasaki - GR Racing 2:01.332 4 4 6.032 0.271 88.08
29 92 Josh WOOD Kawasaki - Wood Racing 2:01.460 2 4 6.160 0.128 87.99
30 72 Harry BLADES Kawasaki - Blades Racing 2:01.997 4 4 6.697 0.537 87.60
31 7 Robert CHILDS Yamaha - JRC Racing 2:02.705 3 4 7.405 0.708 87.10
32 33 Josh HARVEY Yamaha - NR Racing 2:02.752 3 4 7.452 0.047 87.07
33 27 Jamie ASHBY Kawasaki - JPA Racing / Davison Transport 2:03.058 3 4 7.758 0.306 86.85
34 49 James ALDERSON Triumph - R Alderson & Sons Racing 2:03.172 3 4 7.872 0.114 86.77
35 63 Nico CIPRIANO Yamaha - Nico Cipriano 2:04.916 3 4 9.616 1.744 85.56
36 29 Charlie OAKLAND Kawasaki - Austin Motorcycles 2:05.051 4 4 9.751 0.135 85.46
37 4 Louis VALLELEY Kawasaki - Lou Racing 0
38 32 Mark PIPER Yamaha - Pied Piper Racing 0

HEL Performance British Motostar race - conditions dry

1 69 1 Tom BOOTH-AMOS KTM - City Lifting RS Racing 12 24:08.910 88.51 1:59.122 11
2 47 2 Jake ARCHER KTM - City Lifting RS Racing 12 24:11.892 2.982 2.982 88.33 1:59.421 9
3 44 3 Edmund BEST KTM - SymCirrus Motorsport 12 24:49.242 40.332 37.350 86.12 2:02.751 12
4 79 4 Storm STACEY Kalex - FPW Racing 12 24:49.698 40.788 0.456 86.09 2:03.121 11
5 52 5 Jorel BOERBOOM Kalex KTM - Fireplace Warehouse 12 24:49.880 40.970 0.182 86.08 2:02.923 12
6 3 6 Richard KERR KTM - North West Racing 12 24:50.096 41.186 0.216 86.07 2:02.878 12
7 12 7 Edward RENDELL KTM - Banks Racing 12 24:50.167 41.257 0.071 86.06 2:02.024 10
8 34 8 Liam DELVES DR-Moto - Stauff Connect Academy / Dr-Moto 12 24:50.574 41.664 0.407 86.04 2:02.865 12
9 25 9 Mike BROUWERS KTM - TEC7-Joma / Brouwersracingteam 12 24:53.750 44.840 3.176 85.86 2:03.145 7
10 19 S 1 Victor RODRIGUEZ Honda NSF - GA Competition 12 25:00.045 51.135 6.295 85.50 2:03.622 7
11 30 S 2 Max COOK Honda NSF - Wilson Racing 12 25:00.203 51.293 0.158 85.49 2:03.623 3
12 2 S 3 Thomas STRUDWICK Honda NSF - Case Moto Rapido Moto3 12 25:00.279 51.369 0.076 85.48 2:03.660 6
13 42 10 James HOBSON Mahindra - Microlise Cresswell Racing 12 25:10.806 1:01.896 10.527 84.89 2:04.203 12
14 54 11 Sam BURMAN KTM - TeamWNT / Burman Racing 12 25:11.197 1:02.287 0.391 84.87 2:04.081 9
15 55 S 4 Jack SCOTT Honda NSF - J J Racing 12 25:11.808 1:02.898 0.611 84.83 2:04.145 12
16 56 S 5 Charlie ATKINS Honda NSF - Wilson Racing 12 25:12.982 1:04.072 1.174 84.77 2:04.535 9
17 27 12 Josh HODGE KTM - Team HPR 12 25:21.646 1:12.736 8.664 84.28 2:05.163 7
18 99 13 Stephen CAMPBELL Honda - Campbell Racing 12 25:26.101 1:17.191 4.455 84.04 2:05.862 7
19 89 S 6 T. Fox MORETON Honda NSF - Banks Racing / Moto Engineering 12 25:27.387 1:18.477 1.286 83.97 2:05.352 12
20 95 S 7 Ross TURNER Honda NSF - RedRat Racing 12 25:27.540 1:18.630 0.153 83.96 2:05.286 12
21 73 S 8 Luke HOPKINS Honda - HM 12 25:41.146 1:32.236 13.606 83.22 2:06.740 12
22 45 S 9 Scott SWANN Honda NSF - Swann Racing 12 25:41.381 1:32.471 0.235 83.20 2:06.698 12
23 72 S 10 Cameron HORSMAN Honda NSF - Nova / FAB Racing 12 25:42.631 1:33.721 1.250 83.14 2:06.546 7
24 13 S 11 Jacob CLARK Honda NSF - Wilson Racing 11 24:13.055 1 Lap 1 Lap 80.91 2:10.577 8
25 48 S 12 Ewan POTTER Honda NSF - 11 24:36.642 1 Lap 23.587 79.61 2:11.925 3
26 24 S 13 Shane FABER Honda NSF - SymCirrus Motorsport / Shane Faber R 10 25:47.617 2 Laps 1 Lap 69.06 2:10.694 4
NOT CLASSIFIED
DNF 23 Sam LLEWELLYN KTM - SymCirrus Motorsport 11 22:47.760 1 Lap 0.000 85.95 2:02.364 10
DNF 64 Asher DURHAM Mahindra - Microlise Cresswell Racing 7 14:32.627 5 Laps 4 Laps 85.73 2:02.820 7
DNF 20 Joel MARKLUND KTM - Marklund Solutions / SP125 7 14:48.249 5 Laps 15.622 84.22 2:05.354 3
DNF 35 Elliot LODGE FTR - Spike Racing / SP125 5 10:27.673 7 Laps 2 Laps 85.14 2:03.840 4
DNF 17 Tom CARNE Tigcraft - Neatafan / Tigcraft Racing 0

HEL Performance British Motostar warm up - conditions dry

1 69 1 Tom BOOTH-AMOS KTM - City Lifting RS Racing 2:00.117 4 4 88.98
2 47 2 Jake ARCHER KTM - City Lifting RS Racing 2:01.781 3 4 1.664 1.664 87.76
3 44 3 Edmund BEST KTM - SymCirrus Motorsport 2:02.285 4 4 2.168 0.504 87.40
4 79 4 Storm STACEY Kalex - FPW Racing 2:02.451 4 4 2.334 0.166 87.28
5 3 5 Richard KERR KTM - North West Racing 2:02.489 4 4 2.372 0.038 87.25
6 12 6 Edward RENDELL KTM - Banks Racing 2:02.576 4 4 2.459 0.087 87.19
7 64 7 Asher DURHAM Mahindra - Microlise Cresswell Racing 2:02.743 4 4 2.626 0.167 87.07
8 35 8 Elliot LODGE FTR - Spike Racing / SP125 2:02.906 4 4 2.789 0.163 86.96
9 17 9 Tom CARNE Tigcraft - Neatafan / Tigcraft Racing 2:03.025 3 4 2.908 0.119 86.87
10 34 10 Liam DELVES DR-Moto - Stauff Connect Academy / Dr-Moto 2:03.978 3 4 3.861 0.953 86.20
11 52 11 Jorel BOERBOOM Kalex KTM - Fireplace Warehouse 2:04.017 3 4 3.900 0.039 86.18
12 25 12 Mike BROUWERS KTM - TEC7-Joma / Brouwersracingteam 2:04.095 3 4 3.978 0.078 86.12
13 30 S 1 Max COOK Honda NSF - Wilson Racing 2:04.306 3 4 4.189 0.211 85.98
14 2 S 2 Thomas STRUDWICK Honda NSF - Case Moto Rapido Moto3 2:04.329 4 4 4.212 0.023 85.96
15 23 13 Sam LLEWELLYN KTM - SymCirrus Motorsport 2:04.592 3 4 4.475 0.263 85.78
16 42 14 James HOBSON Mahindra - Microlise Cresswell Racing 2:04.729 3 4 4.612 0.137 85.69
17 55 S 3 Jack SCOTT Honda NSF - J J Racing 2:04.743 4 4 4.626 0.014 85.68
18 19 S 4 Victor RODRIGUEZ Honda NSF - GA Competition 2:04.897 4 4 4.780 0.154 85.57
19 54 15 Sam BURMAN KTM - TeamWNT / Burman Racing 2:05.202 3 4 5.085 0.305 85.36
20 27 16 Josh HODGE KTM - Team HPR 2:05.221 4 4 5.104 0.019 85.35
21 95 S 5 Ross TURNER Honda NSF - RedRat Racing 2:06.542 4 4 6.425 1.321 84.46
22 99 17 Stephen CAMPBELL Honda - Campbell Racing 2:06.792 4 4 6.675 0.250 84.29
23 72 S 6 Cameron HORSMAN Honda NSF - Nova / FAB Racing 2:07.082 4 4 6.965 0.290 84.10
24 73 S 7 Luke HOPKINS Honda - HM 2:07.354 4 4 7.237 0.272 83.92
25 24 S 8 Shane FABER Honda NSF - SymCirrus Motorsport / Shane Faber Racing 2:08.097 4 4 7.980 0.743 83.43
26 89 S 9 T. Fox MORETON Honda NSF - Banks Racing / Moto Engineering 2:08.736 3 4 8.619 0.639 83.02
27 45 S 10 Scott SWANN Honda NSF - Swann Racing 2:09.373 4 4 9.256 0.637 82.61
28 48 S 11 Ewan POTTER Honda NSF - 2:11.441 3 4 11.324 2.068 81.31
29 13 S 12 Jacob CLARK Honda NSF - Wilson Racing 2:12.599 3 4 12.482 1.158 80.60
30 56 S 13 Charlie ATKINS Honda NSF - Wilson Racing 1
31 20 18 Joel MARKLUND KTM - Marklund Solutions / SP125 1

Ducati TriOptions Cup race two - conditions dry

1 4 1 Joe COLLIER Ducati - Boast Plumbing 6 11:31.070 92.79 1:53.713 5
2 13 2 Rob GUIVER Ducati - Ducati Romford / Hyside Racing 6 11:31.125 0.055 0.055 92.78 1:53.899 5
3 57 3 Levi DAY Ducati - Boast Plumbing 5 9:42.337 1 Lap 1 Lap 91.76 1:54.838 3
4 10 4 Sean NEARY Ducati - Zoek Racing Team 5 9:42.422 1 Lap 0.085 91.75 1:54.664 3
5 7 5 Phil ATKINSON Ducati - Highsparks Motorsport 5 9:47.687 1 Lap 5.265 90.93 1:55.695 5
6 21 6 Mark CHEETHAM Ducati - Highsparks Motorsport 5 9:49.028 1 Lap 1.341 90.72 1:55.917 2
7 41 7 David FERNS Ducati - Team DFR 5 9:51.422 1 Lap 2.394 90.35 1:56.578 3
8 3 8 Ben GRINDROD Ducati - Hollins Strategic Land 5 9:51.826 1 Lap 0.404 90.29 1:56.478 5
9 5 9 Sam MIDDLEMAS Ducati - Salus / Albany 5 9:52.205 1 Lap 0.379 90.23 1:56.537 4
10 11 899 1 Louis DAWSON Ducati - Ducati Wolverhampton 5 9:57.442 1 Lap 5.237 89.44 1:57.917 2
11 15 10 Jon WAGHORN Ducati - JW Smart Services Ltd / Laguna Motorcycle 5 9:57.624 1 Lap 0.182 89.42 1:57.617 4
12 27 899 2 Taryn SKINNER Ducati - Highsparks Motorsport 5 10:00.301 1 Lap 2.677 89.02 1:58.090 4
13 42 11 Craig CURRIE Ducati - Zoek Racing Team 5 10:00.511 1 Lap 0.210 88.99 1:57.634 5
14 95 899 3 Carl STEVENS Ducati - Freeman Harris Solicitors 5 10:01.451 1 Lap 0.940 88.85 1:58.585 4
15 48 12 Nicky WILSON Ducati - Nicky Wilson Racing 5 10:01.511 1 Lap 0.060 88.84 1:58.292 5
16 33 899 4 Daniel SHAW Ducati - FML Motorsport 5 10:03.732 1 Lap 2.221 88.51 1:58.461 2
17 91 899 5 Paul SLADE Ducati - PPR 5 10:12.935 1 Lap 9.203 87.18 2:00.085 5
18 8 13 Scott PITCHERS Ducati - Saul Bros Racing 5 10:13.223 1 Lap 0.288 87.14 2:00.819 3
19 86 899 6 David SHOUBRIDGE Ducati - 5 10:13.305 1 Lap 0.082 87.13 2:00.181 5
20 64 14 Michael TUSTIN Ducati - TeamMTR 5 10:14.931 1 Lap 1.626 86.90 2:00.659 3
21 28 15 Ben BROADWAY Ducati - Broadway Racing 5 10:19.550 1 Lap 4.619 86.25 2:00.526 5
22 49 16 Thomas RAWSTHORNE Ducati - JWF Motorsport 5 10:22.812 1 Lap 3.262 85.80 2:01.583 5
23 9 899 7 Jordon GILL Ducati - Highsparks Motorsport 5 10:23.207 1 Lap 0.395 85.75 2:01.450 5
24 6 17 Peter HASLER Ducati - AOR / YESSS Electrical Racing 5 10:23.705 1 Lap 0.498 85.68 2:01.619 5
25 50 899 8 Matt STEVENS Ducati - Tech 5 Racing 5 10:26.183 1 Lap 2.478 85.34 2:02.026 4
26 70 899 9 Danny HUSKINSON Ducati - 777 Racing 5 10:39.864 1 Lap 13.681 83.51 2:05.467 5
27 69 18 Darren DOWDS Ducati - AOR / YESSS Electrical Racing 5 10:40.682 1 Lap 0.818 83.41 2:05.123 5
28 40 899 10 James DUNNE Ducati - Highsparks Motorsport 5 10:51.998 1 Lap 11.316 81.96 2:07.856 3
29 99 19 Martin THROWER Ducati - PDQ Precision Racing 5 10:58.632 1 Lap 6.634 81.13 2:08.783 2
30 85 899 11 Richard ROONEY Ducati - All Over It 5 11:16.488 1 Lap 17.856 78.99 2:12.123 5
NOT CLASSIFIED
DNF 17 899 Ieva BAUBLYTE Ducati - AOR / YESSS Electrical Racing 5 10:42.708 1 Lap 83.14 2:05.619 2
DNF 78 899 Joe CONNOLLY Ducati - Team urbanvapor.co.uk 3 6:13.929 3 Laps 2 Laps 85.74 2:01.098 3
DNF 55 899 Nick FORD Ducati - Tech 5 Racing 3 6:19.036 3 Laps 5.107 84.59 2:03.094 2
DNF 2 Jonathan RAILTON Ducati - Boast Plumbing 2 6:41.846 4 Laps 1 Lap 53.19
DNF 22 899 Dave MACKAY Ducati - True Heroes Racing / Laguna 1 2:14.670 5 Laps 1 Lap 79.36
DNF 88 Stephen LI Ducati - Dragontek Racing 1 2:17.913 5 Laps 3.243 77.49

Hyundai Heavy Industries British Sidecar race two - conditions dry

1 77 1 REEVES / REEVES LCR Kawasaki - Carl Cox Motorsport 10 19:37.586 90.76 1:55.600 4
2 100 2 STEVENS / CHARLWOOD LCR Kawasaki - JG Speedfit Cool Kawasaki 10 19:56.675 19.089 19.089 89.31 1:57.380 3
3 31 3 JAMES / TRITTON LCR Kawasaki - Difuria Contractors 10 20:02.688 25.102 6.013 88.86 1:58.296 5
4 16 C 1 BIRCHALL / BIRCHALL LCR Yamaha - Mitchells of Mansfield 10 20:04.070 26.484 1.382 88.76 1:58.396 5
5 18 4 BELL / HYDE LCR Suzuki - Marin Motorsports 10 20:09.742 32.156 5.672 88.35 1:59.519 2
6 60 5 HOLLAND / RAMSAY LCR Kawasaki - Team Hannafin Racing 10 20:10.166 32.580 0.424 88.31 1:58.154 2
7 4 6 PEACH / EDWARDS LCR Kawasaki - Lifesafety / Santander Racing 10 20:19.508 41.922 9.342 87.64 1:59.892 4
8 19 7 GUY / PILMOOR-BRADY LCR Suzuki - Yangi19motorsport 10 20:24.733 47.147 5.225 87.26 2:00.382 2
9 32 8 HORSPOLE / CONNELL LCR Suzuki - Sleaford Quality Foods / Baker Plant H 10 20:27.431 49.845 2.698 87.07 2:00.995 3
10 5 9 BIGGS / RANSLEY LCR Suzuki - Biggs Racing 10 20:27.844 50.258 0.413 87.04 2:00.633 3
11 6 C 2 ELLIS / RICHARDSON LCR Yamaha - GBM - Santander Salt 10 20:34.142 56.556 6.298 86.60 2:01.924 5
12 44 10 BRYAN / McBRIDE LCR Kawasaki - Santander Salt 10 20:42.806 1:05.220 8.664 85.99 2:02.434 6
13 3 C 3 HOLDEN / WILKES LCR Kawasaki - Barnes / Silicon Engineering Racing 10 20:43.039 1:05.453 0.233 85.98 2:01.400 6
14 8 C 4 FOUNDS / PETERS LCR Yamaha - Brian Gray Powerbiking 10 20:49.584 1:11.998 6.545 85.53 2:02.553 7
15 72 C 5 FOUNDS / WALMSLEY LCR Suzuki - Trustland Construction / Rowtec Engin 10 20:55.871 1:18.285 6.287 85.10 2:03.543 4
16 111 11 CABLE / PAWSEY LCR Yamaha - Cable Racing 10 21:22.734 1:45.148 26.863 83.32 2:06.190 5
17 11 12 NICHOLLS / COLE LCR Suzuki - Certain Exhibitions 10 21:26.859 1:49.273 4.125 83.05 2:06.356 3
18 34 C 6 CHRISTIE / CHRISTIE LCR Honda - Christie Engineering Services 10 21:34.882 1:57.296 8.023 82.54 2:06.768 6
19 71 13 GALLERNE / BURTON RCN Suzuki - Team Gallerne 9 19:44.423 1 Lap 1 Lap 81.21 2:09.315 6
20 69 C 7 LAMBERT / CANIPA GLR Honda - Golden Fleece York / Biker Constructio 9 19:46.089 1 Lap 1.666 81.10 2:09.205 5
NOT CLASSIFIED
DNF 29 KERSHAW / CLARK LCR Kawasaki - Express Tyre Service / Blinkbonny 7 14:14.950 3 Laps 2 Laps 87.50 1:58.461 5
DNF 92 HILDIGE / HILDIGE LCR Suzuki - 7 15:40.065 3 Laps 1:25.115 79.58 2:10.796 2
DNF 74 RESTALL / ALLUM RCN Yamaha - Team JCR Racing 6 13:56.146 4 Laps 1 Lap 76.69 2:15.941 3
DNF 36 PARNELL / FAIRHURST LCR Suzuki - Life Security Systems / Santander Sal 5 11:22.372 5 Laps 1 Lap 78.31 2:13.599 2
DNF 10 ROBINSON / SMITHIES LCR Suzuki - Robinson Racing 3 6:30.156 7 Laps 2 Laps 82.18 2:06.781 3
DNF 25 MacLAURIN / HOPE LCR Yamaha - Blue Group / Fielder Filters 3 6:37.012 7 Laps 6.856 80.76 2:07.067 2
DNF 7 C GRAY / PITT LCR Yamaha - Brian Gray Powerbiking 2 4:24.073 8 Laps 1 Lap 80.94 2:08.027 2
DNF 78 JONES / BRYANT LCR Yamaha - Team ProperlyProtected.co.uk / BeM 2 4:28.593 8 Laps 4.520 79.58 2:08.740 2
DNF 70 ARCHER / THOMAS LCR Suzuki - Team Hannafin Racing 0
DNF 9 WALKER / HAWES LCR Kawasaki - Santander Salt 0

Hyundai Heavy Industries British Sidecar warm up - conditions dry

1 9 1 WALKER / HAWES LCR Kawasaki - Santander Salt 1:59.242 3 3 89.63
2 29 2 KERSHAW / CLARK LCR Kawasaki - Express Tyre Service / Blinkbonny Quarr 1:59.772 3 3 0.530 0.530 89.23
3 77 3 REEVES / REEVES LCR Kawasaki - Carl Cox Motorsport 1:59.864 2 3 0.622 0.092 89.16
4 60 4 HOLLAND / RAMSAY LCR Kawasaki - Team Hannafin Racing 2:00.036 3 3 0.794 0.172 89.04
5 70 5 ARCHER / THOMAS LCR Suzuki - Team Hannafin Racing 2:01.267 3 3 2.025 1.231 88.13
6 100 6 STEVENS / CHARLWOOD LCR Kawasaki - JG Speedfit Cool Kawasaki 2:02.941 3 3 3.699 1.674 86.93
7 18 7 BELL / HYDE LCR Suzuki - Marin Motorsports 2:04.069 3 3 4.827 1.128 86.14
8 5 8 BIGGS / RANSLEY LCR Suzuki - Biggs Racing 2:04.738 3 3 5.496 0.669 85.68
9 4 9 PEACH / EDWARDS LCR Kawasaki - Lifesafety / Santander Racing 2:05.353 3 3 6.111 0.615 85.26
10 32 10 HORSPOLE / CONNELL LCR Suzuki - Sleaford Quality Foods / Baker Plant Hire 2:05.789 3 3 6.547 0.436 84.96
11 72 C 1 FOUNDS / WALMSLEY LCR Suzuki - Trustland Construction / Rowtec Engineerin 2:06.679 3 3 7.437 0.890 84.37
12 10 11 ROBINSON / SMITHIES LCR Suzuki - Robinson Racing 2:08.121 3 3 8.879 1.442 83.42
13 44 12 BRYAN / McBRIDE LCR Kawasaki - Santander Salt 2:08.963 3 3 9.721 0.842 82.87
14 34 C 2 CHRISTIE / CHRISTIE LCR Honda - Christie Engineering Services 2:09.394 3 3 10.152 0.431 82.60
15 6 C 3 ELLIS / RICHARDSON LCR Yamaha - GBM - Santander Salt 2:09.805 2 3 10.563 0.411 82.33
16 3 C 4 HOLDEN / WILKES LCR Kawasaki - Barnes / Silicon Engineering Racing 2:10.637 2 3 11.395 0.832 81.81
17 36 13 PARNELL / FAIRHURST LCR Suzuki - Life Security Systems / Santander Salt 2:12.192 2 3 12.950 1.555 80.85
18 11 14 NICHOLLS / COLE LCR Suzuki - Certain Exhibitions 2:12.278 2 2 13.036 0.086 80.80
19 25 15 MacLAURIN / HOPE LCR Yamaha - Blue Group / Fielder Filters 2:12.360 2 2 13.118 0.082 80.75
20 19 16 GUY / PILMOOR-BRADY LCR Suzuki - Yangi19motorsport 2:12.487 2 3 13.245 0.127 80.67
21 71 17 GALLERNE / BURTON RCN Suzuki - Team Gallerne 2:13.182 2 2 13.940 0.695 80.25
22 7 C 5 GRAY / PITT LCR Yamaha - Brian Gray Powerbiking 2:13.328 2 2 14.086 0.146 80.16
23 8 C 6 FOUNDS / PETERS LCR Yamaha - Brian Gray Powerbiking 2:13.406 2 2 14.164 0.078 80.11
24 111 18 CABLE / PAWSEY LCR Yamaha - Cable Racing 2:14.067 2 2 14.825 0.661 79.72
25 74 19 RESTALL / ALLUM RCN Yamaha - Team JCR Racing 2:14.899 3 3 15.657 0.832 79.23
26 92 20 HILDIGE / HILDIGE LCR Suzuki - 2:16.511 2 2 17.269 1.612 78.29
27 31 21 JAMES / TRITTON LCR Kawasaki - Difuria Contractors 1
28 16 C 7 BIRCHALL / BIRCHALL LCR Yamaha - Mitchells of Mansfield 0
29 78 22 JONES / BRYANT LCR Yamaha - Team ProperlyProtected.co.uk / BeMoto 0

Santander Consumer Finance British RC Cup race two - conditions dry

1 35 Brian HART KTM - Brian 35 8 18:02.939 78.95 2:14.110 6
2 47 Fenton SEABRIGHT KTM - FHS Racing 8 18:07.514 4.575 4.575 78.62 2:14.326 7
3 14 Jack NIXON KTM - IXON Racing 8 18:19.872 16.933 12.358 77.74 2:15.823 8
4 78 Matthew BOWER KTM - Chris Walker Kawasaki 8 18:19.946 17.007 0.074 77.73 2:15.653 8
5 7 Kade VERWEY KTM - Team XG Group 8 18:20.040 17.101 0.094 77.72 2:15.946 8
6 77 Sam LAFFINS KTM - Sam Laffins Racing 8 18:25.314 22.375 5.274 77.35 2:16.780 7
7 4 Connor MOODY KTM - Steelmate 8 18:25.389 22.450 0.075 77.35 2:16.700 3
8 26 Will LATHROPE KTM - LRC Racing 8 18:38.540 35.601 13.151 76.44 2:17.410 7
9 58 Jordan McCORD KTM - AJM Sales Ltd 8 18:40.719 37.780 2.179 76.29 2:18.909 7
10 69 David INCE KTM - DMC Moto Racing 8 18:50.948 48.009 10.229 75.60 2:18.831 5
11 57 Josh HIATT KTM - JNH Racing 8 18:59.265 56.326 8.317 75.05 2:19.494 3
12 86 Adam DUNN KTM - Team #109 8 18:59.275 56.336 0.010 75.05 2:20.312 3
13 21 Daniel BROOKS KTM - Daniel Brooks Racing 8 19:07.706 1:04.767 8.431 74.50 2:21.926 7
14 76 Luke VERWEY KTM - Team XG Group 8 19:08.021 1:05.082 0.315 74.48 2:21.335 3
15 88 Michael LARGE-TAYLOR KTM - Large-Taylor Racing 8 19:19.300 1:16.361 11.279 73.75 2:22.276 8
16 44 Mitchell SEARLE KTM - Mitchell Searle Racing 8 19:44.225 1:41.286 24.925 72.20 2:26.417 2
17 17 James LEWIS-BLAIR KTM - D3 Racing 8 19:56.032 1:53.093 11.807 71.49 2:27.947 4
NOT CLASSIFIED
DNF 66 Annabel THOMAS KTM - Four Anjels Racing 7 16:20.871 1 Lap 1 Lap 76.27 2:17.683 5
DNF 3 Connor THOMSON KTM - Steelmate Racing / Monroe Racing RSA 3 6:55.861 5 Laps 4 Laps 77.10 2:15.281 3
DNF 63 Joshua COWARD KTM - Coward Racing 3 7:16.096 5 Laps 20.235 73.52 2:21.002 3

Share this story:

Add your comment